To NAV CANADA Home Page Login to a new session Search on AWWS site Disclaimer Vers la page française équivalente Tips FAQ What's new on the site To the Forecasts and Observations / NOTAM section To "File a Flight Plan" website Publications and other links Update of the User's profile FIC Telephone Numbers My Weather Data Folder Route Weather Data Regional Weather Data Local Weather Data To the Forecasts and Observations / NOTAM section
Request Generated 03/19/2019 at 23:04:59 UTC . Weather information available at that time is displayed.

METAR/TAF

KAMLOOPS/BC    

METAR CYKA 192200Z 10010KT 40SM SCT250 15/M01 A3017 RMK CI3 SLP230=
METAR CYKA 192100Z 10009KT 40SM FEW250 13/M01 A3021 RMK CI1 SLP242=
METAR CYKA 192000Z 11010KT 40SM FEW250 11/M02 A3024 RMK CI1 SLP255=

TAF CYKA 191838Z 1919/2007 10006KT P6SM FEW250
RMK NXT FCST BY 200100Z=
Your time UTC time
Weather data provided by Environment Canada and NAV CANADA